Sunrise Springs, Arizona
Current Conditions -  °F | °C
As of 4:53 PM on Thursday 27 Nov 2014 (Local Time) from KGUP Reporting Station
Clear Clear  
Wind Chill: 55°   Ceiling: Unl
Heat Index: 55°   Visibility: 10mi
Dew Point:   Wind: 0mph
Humidity: 15%   Direction: NA
Pressure: 30.36"   Gusts: NA
Location:  35.6053°N, 109.458°W
Report Text: KGUP 272353Z AUTO 00000KT 10SM CLR 13/M13 A3036 RMK AO2 SLP284 T01281133 10172 20072 55006
Loading
Personal Weather Stations






























Interactive Weather Map New forecast layout! Learn more

10-Day Weather Forecast

Advertisements
Track Severe Weather on mobile